Time;durP1;ratioP1;P1;durP2;ratioP2;P2;SDS_P1;SDS_P2;PMS_P1;PMS_P2;Temp;Humidity;BMP_temperature;BMP_pressure;BME280_temperature;BME280_humidity;BME280_pressure;Samples;Min_cycle;Max_cycle;Signal;HPM_P1;HPM_P2
2021/10/07 00:00:29;;;;;;;;;;;;;;;;;;2113526;27;47790;-73
2021/10/07 00:01:30;;;;;;;;;;;;;;;;;;2121763;27;45911;-73
2021/10/07 00:02:32;;;;;;;;;;;;;;;;;;2122401;27;43068;-73
2021/10/07 00:03:33;;;;;;;;;;;;;;;;;;2113756;28;47335;-74
2021/10/07 00:04:34;;;;;;;;;;;;;;;;;;2113800;28;46824;-73
2021/10/07 00:05:36;;;;;;;;;;;;;;;;;;2122038;27;47780;-73
2021/10/07 00:06:37;;;;;;;;;;;;;;;;;;2122099;27;46132;-73
2021/10/07 00:07:39;;;;;;;;;;;;;;;;;;2122030;27;46110;-74
2021/10/07 00:08:41;;;;;;;;;;;;;;;;;;2113758;27;46479;-73
2021/10/07 00:09:42;;;;;;;;;;;;;;;;;;2114478;27;44932;-74
2021/10/07 00:10:44;;;;;;;;;;;;;;;;;;2121942;27;46566;-74
2021/10/07 00:11:45;;;;;;;;;;;;;;;;;;2122528;27;43532;-74
2021/10/07 00:12:47;;;;;;;;;;;;;;;;;;2121824;27;45621;-75
2021/10/07 00:13:48;;;;;;;;;;;;;;;;;;2113645;28;45564;-75
2021/10/07 00:14:50;;;;;;;;;;;;;;;;;;2113396;28;44536;-75
2021/10/07 00:15:51;;;;;;;;;;;;;;;;;;2114380;28;46363;-75
2021/10/07 00:16:53;;;;;;;;;;;;;;;;;;2114034;28;45092;-75
2021/10/07 00:17:54;;;;;;;;;;;;;;;;;;2113657;27;46278;-75
2021/10/07 00:18:56;;;;;;;;;;;;;;;;;;2115100;28;45194;-75
2021/10/07 00:19:58;;;;;;;;;;;;;;;;;;2123788;27;46387;-73
2021/10/07 00:20:59;;;;;;;;;;;;;;;;;;2124049;27;43593;-74
2021/10/07 00:22:01;;;;;;;;;;;;;;;;;;2115403;28;46728;-74
2021/10/07 00:23:02;;;;;;;;;;;;;;;;;;2115131;28;46338;-74
2021/10/07 00:24:11;;;;;;;;;;;;;;;;;;2123962;27;42992;-74
2021/10/07 00:25:13;;;;;;;;;;;;;;;;;;2122311;27;42626;-75
2021/10/07 00:26:14;;;;;;;;;;;;;;;;;;2123728;27;45611;-75
2021/10/07 00:27:16;;;;;;;;;;;;;;;;;;2123522;27;46172;-75
2021/10/07 00:28:17;;;;;;;;;;;;;;;;;;2114584;28;46470;-75
2021/10/07 00:30:22;;;;;;;;;;;;;;;;;;2123718;27;46699;-75
2021/10/07 00:31:26;;;;;;;;;;;;;;;;;;2122804;27;44533;-74
2021/10/07 00:32:33;;;;;;;;;;;;;;;;;;2123716;27;44563;-74
2021/10/07 00:33:46;;;;;;;;;;;;;;;;;;2122681;27;44483;-74
2021/10/07 00:35:07;;;;;;;;;;;;;;;;;;2123828;27;43942;-75
2021/10/07 00:39:43;;;;;;;;;;;;;;;;;;2115801;28;45927;-74
2021/10/07 00:40:45;;;;;;;;;;;;;;;;;;2115172;28;46676;-74
2021/10/07 00:41:46;;;;;;;;;;;;;;;;;;2115341;28;43179;-74
2021/10/07 00:42:47;;;;;;;;;;;;;;;;;;2115113;28;46660;-74
2021/10/07 00:43:49;;;;;;;;;;;;;;;;;;2123560;27;45745;-74
2021/10/07 00:44:51;;;;;;;;;;;;;;;;;;2115070;28;46622;-74
2021/10/07 00:45:53;;;;;;;;;;;;;;;;;;2114387;27;45328;-74
2021/10/07 00:46:59;;;;;;;;;;;;;;;;;;2106711;28;46822;-74
2021/10/07 00:48:01;;;;;;;;;;;;;;;;;;2114240;28;45450;-74
2021/10/07 00:49:02;;;;;;;;;;;;;;;;;;2114860;28;46533;-74
2021/10/07 00:50:04;;;;;;;;;;;;;;;;;;2114897;28;46477;-74
2021/10/07 00:51:05;;;;;;;;;;;;;;;;;;2115127;28;45596;-74
2021/10/07 00:52:07;;;;;;;;;;;;;;;;;;2115792;28;46633;-74
2021/10/07 00:53:10;;;;;;;;;;;;;;;;;;2123729;27;45769;-74
2021/10/07 00:54:12;;;;;;;;;;;;;;;;;;2122848;27;45894;-74
2021/10/07 00:55:13;;;;;;;;;;;;;;;;;;2115053;28;45849;-74
2021/10/07 00:56:19;;;;;;;;;;;;;;;;;;2115254;27;46369;-72
2021/10/07 00:57:21;;;;;;;;;;;;;;;;;;2115457;27;46943;-73
2021/10/07 00:58:22;;;;;;;;;;;;;;;;;;2113982;28;44106;-72
2021/10/07 00:59:24;;;;;;;;;;;;;;;;;;2115458;28;44253;-72
2021/10/07 01:00:25;;;;;;;;;;;;;;;;;;2115352;27;46185;-72
2021/10/07 01:01:27;;;;;;;;;;;;;;;;;;2123176;27;45246;-72
2021/10/07 01:02:29;;;;;;;;;;;;;;;;;;2123133;27;47063;-71
2021/10/07 01:03:33;;;;;;;;;;;;;;;;;;2123514;27;47486;-72
2021/10/07 01:04:35;;;;;;;;;;;;;;;;;;2123431;27;46062;-72
2021/10/07 01:05:36;;;;;;;;;;;;;;;;;;2123512;27;45895;-72
2021/10/07 01:06:40;;;;;;;;;;;;;;;;;;2114886;28;46072;-72
2021/10/07 01:07:41;;;;;;;;;;;;;;;;;;2114576;28;46972;-72
2021/10/07 01:08:43;;;;;;;;;;;;;;;;;;2114946;27;45879;-72
2021/10/07 01:09:45;;;;;;;;;;;;;;;;;;2123446;27;45919;-72
2021/10/07 01:10:46;;;;;;;;;;;;;;;;;;2114654;28;47382;-72
2021/10/07 01:11:48;;;;;;;;;;;;;;;;;;2115068;27;46271;-72
2021/10/07 01:12:49;;;;;;;;;;;;;;;;;;2123810;27;45229;-72
2021/10/07 01:13:51;;;;;;;;;;;;;;;;;;2115006;28;42635;-72
2021/10/07 01:14:53;;;;;;;;;;;;;;;;;;2106779;28;44529;-72
2021/10/07 01:16:01;;;;;;;;;;;;;;;;;;2114960;28;43760;-72
2021/10/07 01:17:03;;;;;;;;;;;;;;;;;;2114396;28;45488;-72
2021/10/07 01:18:05;;;;;;;;;;;;;;;;;;2106583;28;45502;-72
2021/10/07 01:19:06;;;;;;;;;;;;;;;;;;2114213;28;44319;-73
2021/10/07 01:20:08;;;;;;;;;;;;;;;;;;2115865;27;45611;-72
2021/10/07 01:21:10;;;;;;;;;;;;;;;;;;2124151;27;45875;-72
2021/10/07 01:22:12;;;;;;;;;;;;;;;;;;2123677;27;45612;-72
2021/10/07 01:23:13;;;;;;;;;;;;;;;;;;2123264;27;45260;-72
2021/10/07 01:24:14;;;;;;;;;;;;;;;;;;2114981;28;46724;-72
2021/10/07 01:25:16;;;;;;;;;;;;;;;;;;2116098;28;45808;-73
2021/10/07 01:26:18;;;;;;;;;;;;;;;;;;2115686;28;45538;-73
2021/10/07 01:27:21;;;;;;;;;;;;;;;;;;2123887;27;44697;-72
2021/10/07 01:28:22;;;;;;;;;;;;;;;;;;2114780;28;46371;-72
2021/10/07 01:29:24;;;;;;;;;;;;;;;;;;2106291;28;45318;-72
2021/10/07 01:30:25;;;;;;;;;;;;;;;;;;2115132;27;46432;-72
2021/10/07 01:31:27;;;;;;;;;;;;;;;;;;2123396;27;46503;-72
2021/10/07 01:32:28;;;;;;;;;;;;;;;;;;2123618;27;45591;-72
2021/10/07 01:33:30;;;;;;;;;;;;;;;;;;2123921;27;44276;-72
2021/10/07 01:34:31;;;;;;;;;;;;;;;;;;2114946;28;45748;-72
2021/10/07 01:35:33;;;;;;;;;;;;;;;;;;2115476;27;44185;-72
2021/10/07 01:36:34;;;;;;;;;;;;;;;;;;2115346;28;44069;-73
2021/10/07 01:37:36;;;;;;;;;;;;;;;;;;2106877;28;45657;-72
2021/10/07 01:38:37;;;;;;;;;;;;;;;;;;2106768;28;44932;-72
2021/10/07 01:39:39;;;;;;;;;;;;;;;;;;2114980;28;45523;-72
2021/10/07 01:40:40;;;;;;;;;;;;;;;;;;2114759;28;45595;-72
2021/10/07 01:41:42;;;;;;;;;;;;;;;;;;2106557;28;45771;-72
2021/10/07 01:42:43;;;;;;;;;;;;;;;;;;2114690;28;45638;-72
2021/10/07 01:43:47;;;;;;;;;;;;;;;;;;2107276;28;45391;-72
2021/10/07 01:44:48;;;;;;;;;;;;;;;;;;2107259;28;44187;-74
2021/10/07 01:45:50;;;;;;;;;;;;;;;;;;2106301;28;45436;-74
2021/10/07 01:46:52;;;;;;;;;;;;;;;;;;2114415;28;45411;-74
2021/10/07 01:47:54;;;;;;;;;;;;;;;;;;2114445;28;46924;-74
2021/10/07 01:48:55;;;;;;;;;;;;;;;;;;2114758;27;46873;-74
2021/10/07 01:49:57;;;;;;;;;;;;;;;;;;2123390;27;45438;-74
2021/10/07 01:50:59;;;;;;;;;;;;;;;;;;2114749;28;46642;-74
2021/10/07 01:52:00;;;;;;;;;;;;;;;;;;2106428;28;47008;-74
2021/10/07 01:53:01;;;;;;;;;;;;;;;;;;2114894;28;44377;-74
2021/10/07 01:54:04;;;;;;;;;;;;;;;;;;2114766;28;45383;-74
2021/10/07 01:55:07;;;;;;;;;;;;;;;;;;2114977;27;43990;-74
2021/10/07 01:56:08;;;;;;;;;;;;;;;;;;2114617;28;46757;-73
2021/10/07 01:57:10;;;;;;;;;;;;;;;;;;2106550;28;44123;-74
2021/10/07 01:58:11;;;;;;;;;;;;;;;;;;2106450;28;44130;-74
2021/10/07 01:59:13;;;;;;;;;;;;;;;;;;2106425;28;45782;-74
2021/10/07 02:00:14;;;;;;;;;;;;;;;;;;2114761;27;46485;-74
2021/10/07 02:01:16;;;;;;;;;;;;;;;;;;2114270;28;46805;-74
2021/10/07 02:02:17;;;;;;;;;;;;;;;;;;2114490;28;44934;-74
2021/10/07 02:03:19;;;;;;;;;;;;;;;;;;2123101;27;45997;-74
2021/10/07 02:04:20;;;;;;;;;;;;;;;;;;2114634;28;42586;-74
2021/10/07 02:05:21;;;;;;;;;;;;;;;;;;2114609;27;47220;-74
2021/10/07 02:06:23;;;;;;;;;;;;;;;;;;2122754;27;45974;-75
2021/10/07 02:07:24;;;;;;;;;;;;;;;;;;2123324;27;44505;-74
2021/10/07 02:08:26;;;;;;;;;;;;;;;;;;2113746;28;44251;-73
2021/10/07 02:09:27;;;;;;;;;;;;;;;;;;2114287;28;43592;-74
2021/10/07 02:10:29;;;;;;;;;;;;;;;;;;2115112;28;47143;-74
2021/10/07 02:11:30;;;;;;;;;;;;;;;;;;2123052;27;44313;-73
2021/10/07 02:12:31;;;;;;;;;;;;;;;;;;2114672;28;43486;-73
2021/10/07 02:13:33;;;;;;;;;;;;;;;;;;2114656;28;44946;-73
2021/10/07 02:14:34;;;;;;;;;;;;;;;;;;2114976;28;48447;-73
2021/10/07 02:15:36;;;;;;;;;;;;;;;;;;2114395;28;47029;-73
2021/10/07 02:16:37;;;;;;;;;;;;;;;;;;2114334;27;44299;-73
2021/10/07 02:17:39;;;;;;;;;;;;;;;;;;2122637;27;47325;-73
2021/10/07 02:18:40;;;;;;;;;;;;;;;;;;2114225;28;47092;-73
2021/10/07 02:19:41;;;;;;;;;;;;;;;;;;2106117;28;45943;-74
2021/10/07 02:20:43;;;;;;;;;;;;;;;;;;2114794;27;46405;-74
2021/10/07 02:21:45;;;;;;;;;;;;;;;;;;2122901;27;44864;-74
2021/10/07 02:22:46;;;;;;;;;;;;;;;;;;2113788;27;47139;-73
2021/10/07 02:23:47;;;;;;;;;;;;;;;;;;2114645;28;41188;-73
2021/10/07 02:24:49;;;;;;;;;;;;;;;;;;2114927;28;45803;-73
2021/10/07 02:25:50;;;;;;;;;;;;;;;;;;2122745;27;44602;-73
2021/10/07 02:26:52;;;;;;;;;;;;;;;;;;2122936;27;42342;-73
2021/10/07 02:27:53;;;;;;;;;;;;;;;;;;2122030;27;44070;-72
2021/10/07 02:28:55;;;;;;;;;;;;;;;;;;2115002;28;42495;-73
2021/10/07 02:29:56;;;;;;;;;;;;;;;;;;2114925;28;46201;-73
2021/10/07 02:30:58;;;;;;;;;;;;;;;;;;2114952;28;45303;-74
2021/10/07 02:31:59;;;;;;;;;;;;;;;;;;2114481;27;45583;-74
2021/10/07 02:33:01;;;;;;;;;;;;;;;;;;2122893;27;45142;-73
2021/10/07 02:34:02;;;;;;;;;;;;;;;;;;2122659;27;45687;-74
2021/10/07 02:35:04;;;;;;;;;;;;;;;;;;2122904;27;43705;-74
2021/10/07 02:36:05;;;;;;;;;;;;;;;;;;2114311;28;45168;-74
2021/10/07 02:37:07;;;;;;;;;;;;;;;;;;2114242;27;46662;-74
2021/10/07 02:38:08;;;;;;;;;;;;;;;;;;2113737;28;42604;-74
2021/10/07 02:39:10;;;;;;;;;;;;;;;;;;2114439;28;45290;-74
2021/10/07 02:40:13;;;;;;;;;;;;;;;;;;2114400;28;46856;-74
2021/10/07 02:41:14;;;;;;;;;;;;;;;;;;2114518;27;42919;-74
2021/10/07 02:42:16;;;;;;;;;;;;;;;;;;2114937;27;45862;-74
2021/10/07 02:43:17;;;;;;;;;;;;;;;;;;2114469;28;46626;-74
2021/10/07 02:44:19;;;;;;;;;;;;;;;;;;2114486;28;45324;-74
2021/10/07 02:45:21;;;;;;;;;;;;;;;;;;2113696;28;46844;-74
2021/10/07 02:46:22;;;;;;;;;;;;;;;;;;2113805;28;44135;-74
2021/10/07 02:47:23;;;;;;;;;;;;;;;;;;2114589;28;46612;-74
2021/10/07 02:48:25;;;;;;;;;;;;;;;;;;2122016;27;43779;-75
2021/10/07 02:49:28;;;;;;;;;;;;;;;;;;2122717;27;45429;-75
2021/10/07 02:50:30;;;;;;;;;;;;;;;;;;2122855;27;43666;-75
2021/10/07 02:51:32;;;;;;;;;;;;;;;;;;2122382;27;44077;-75
2021/10/07 02:52:33;;;;;;;;;;;;;;;;;;2113882;28;46778;-75
2021/10/07 02:53:35;;;;;;;;;;;;;;;;;;2114198;28;44087;-75
2021/10/07 02:54:36;;;;;;;;;;;;;;;;;;2114041;27;45561;-75
2021/10/07 02:55:38;;;;;;;;;;;;;;;;;;2114353;28;44286;-75
2021/10/07 02:56:39;;;;;;;;;;;;;;;;;;2114342;28;45912;-75
2021/10/07 02:57:41;;;;;;;;;;;;;;;;;;2122345;27;44211;-75
2021/10/07 02:59:51;;;;;;;;;;;;;;;;;;2106103;28;15910;-67
2021/10/07 03:00:52;;;;;;;;;;;;;;;;;;2105960;28;46548;-67
2021/10/07 03:01:54;;;;;;;;;;;;;;;;;;2105839;28;44805;-67
2021/10/07 03:02:55;;;;;;;;;;;;;;;;;;2114929;28;44768;-67
2021/10/07 03:03:57;;;;;;;;;;;;;;;;;;2114533;28;43720;-67
2021/10/07 03:04:58;;;;;;;;;;;;;;;;;;2113979;28;46498;-67
2021/10/07 03:06:00;;;;;;;;;;;;;;;;;;2105563;28;44615;-67
2021/10/07 03:07:01;;;;;;;;;;;;;;;;;;2105787;28;44131;-67
2021/10/07 03:08:03;;;;;;;;;;;;;;;;;;2105399;28;45313;-68
2021/10/07 03:09:04;;;;;;;;;;;;;;;;;;2110196;28;47119;-67
2021/10/07 03:10:06;;;;;;;;;;;;;;;;;;2122486;27;46199;-67
2021/10/07 03:11:07;;;;;;;;;;;;;;;;;;2122686;27;47054;-67
2021/10/07 03:12:09;;;;;;;;;;;;;;;;;;2122351;27;45803;-67
2021/10/07 03:13:10;;;;;;;;;;;;;;;;;;2122965;27;45324;-67
2021/10/07 03:14:12;;;;;;;;;;;;;;;;;;2113727;28;46986;-67
2021/10/07 03:15:13;;;;;;;;;;;;;;;;;;2114042;28;44662;-67
2021/10/07 03:16:15;;;;;;;;;;;;;;;;;;2114079;27;45801;-67
2021/10/07 03:17:16;;;;;;;;;;;;;;;;;;2122597;27;45030;-66
2021/10/07 03:18:18;;;;;;;;;;;;;;;;;;2121657;27;47189;-67
2021/10/07 03:19:19;;;;;;;;;;;;;;;;;;2114156;27;45874;-67
2021/10/07 03:20:20;;;;;;;;;;;;;;;;;;2122359;27;47198;-66
2021/10/07 03:21:22;;;;;;;;;;;;;;;;;;2114276;28;44638;-66
2021/10/07 03:22:23;;;;;;;;;;;;;;;;;;2113983;27;47097;-67
2021/10/07 03:23:25;;;;;;;;;;;;;;;;;;2122612;27;45772;-66
2021/10/07 03:24:26;;;;;;;;;;;;;;;;;;2122309;27;47127;-67
2021/10/07 03:25:27;;;;;;;;;;;;;;;;;;2114312;28;44794;-67
2021/10/07 03:26:29;;;;;;;;;;;;;;;;;;2114380;27;46954;-67
2021/10/07 03:27:30;;;;;;;;;;;;;;;;;;2113948;28;46344;-67
2021/10/07 03:28:32;;;;;;;;;;;;;;;;;;2113716;28;44008;-67
2021/10/07 03:29:33;;;;;;;;;;;;;;;;;;2114759;28;44070;-67
2021/10/07 03:30:35;;;;;;;;;;;;;;;;;;2114466;28;43758;-67
2021/10/07 03:31:37;;;;;;;;;;;;;;;;;;2114391;27;45218;-67
2021/10/07 03:32:38;;;;;;;;;;;;;;;;;;2122209;27;45158;-67
2021/10/07 03:33:39;;;;;;;;;;;;;;;;;;2113459;28;45323;-67
2021/10/07 03:34:41;;;;;;;;;;;;;;;;;;2113584;27;45237;-67
2021/10/07 03:35:42;;;;;;;;;;;;;;;;;;2114057;28;44890;-68
2021/10/07 03:36:43;;;;;;;;;;;;;;;;;;2113650;28;45339;-68
2021/10/07 03:37:47;;;;;;;;;;;;;;;;;;2122038;27;45155;-67
2021/10/07 03:38:48;;;;;;;;;;;;;;;;;;2121683;27;46754;-68
2021/10/07 03:39:50;;;;;;;;;;;;;;;;;;2122483;27;45477;-68
2021/10/07 03:40:51;;;;;;;;;;;;;;;;;;2122073;27;45362;-68
2021/10/07 03:41:52;;;;;;;;;;;;;;;;;;2114678;28;46337;-69
2021/10/07 03:42:54;;;;;;;;;;;;;;;;;;2121759;27;45402;-69
2021/10/07 03:43:55;;;;;;;;;;;;;;;;;;2122676;27;45549;-69
2021/10/07 03:44:57;;;;;;;;;;;;;;;;;;2122179;27;45297;-68
2021/10/07 03:45:58;;;;;;;;;;;;;;;;;;2113902;28;46397;-68
2021/10/07 03:47:00;;;;;;;;;;;;;;;;;;2113588;28;43751;-68
2021/10/07 03:48:01;;;;;;;;;;;;;;;;;;2114403;28;45291;-68
2021/10/07 03:49:03;;;;;;;;;;;;;;;;;;2114458;28;43565;-68
2021/10/07 03:50:04;;;;;;;;;;;;;;;;;;2114263;28;45280;-68
2021/10/07 03:51:06;;;;;;;;;;;;;;;;;;2113463;28;45623;-68
2021/10/07 03:52:07;;;;;;;;;;;;;;;;;;2113565;27;45282;-68
2021/10/07 03:53:08;;;;;;;;;;;;;;;;;;2113278;28;44133;-68
2021/10/07 03:54:10;;;;;;;;;;;;;;;;;;2113727;28;47016;-68
2021/10/07 03:55:11;;;;;;;;;;;;;;;;;;2122274;27;45382;-68
2021/10/07 03:56:13;;;;;;;;;;;;;;;;;;2113778;28;45624;-68
2021/10/07 03:57:14;;;;;;;;;;;;;;;;;;2105271;28;45461;-68
2021/10/07 03:58:16;;;;;;;;;;;;;;;;;;2113359;27;45654;-68
2021/10/07 03:59:17;;;;;;;;;;;;;;;;;;2113486;28;45368;-68
2021/10/07 04:00:18;;;;;;;;;;;;;;;;;;2105143;28;46498;-68
2021/10/07 04:01:20;;;;;;;;;;;;;;;;;;2113902;28;45591;-68
2021/10/07 04:02:21;;;;;;;;;;;;;;;;;;2113856;27;46677;-68
2021/10/07 04:03:23;;;;;;;;;;;;;;;;;;2113869;28;46821;-68
2021/10/07 04:04:24;;;;;;;;;;;;;;;;;;2113713;28;42176;-68
2021/10/07 04:05:26;;;;;;;;;;;;;;;;;;2113926;28;44127;-68
2021/10/07 04:06:27;;;;;;;;;;;;;;;;;;2122161;27;45269;-68
2021/10/07 04:07:28;;;;;;;;;;;;;;;;;;2122207;27;46614;-68
2021/10/07 04:08:30;;;;;;;;;;;;;;;;;;2113839;28;43771;-68
2021/10/07 04:09:31;;;;;;;;;;;;;;;;;;2122678;27;46509;-68
2021/10/07 04:10:33;;;;;;;;;;;;;;;;;;2122319;27;45818;-68
2021/10/07 04:11:34;;;;;;;;;;;;;;;;;;2113967;28;46946;-68
2021/10/07 04:12:36;;;;;;;;;;;;;;;;;;2114095;27;45460;-68
2021/10/07 04:13:37;;;;;;;;;;;;;;;;;;2122117;27;45869;-68
2021/10/07 04:14:39;;;;;;;;;;;;;;;;;;2113492;28;43046;-68
2021/10/07 04:15:40;;;;;;;;;;;;;;;;;;2113894;28;44765;-68
2021/10/07 04:16:41;;;;;;;;;;;;;;;;;;2113925;28;47505;-68
2021/10/07 04:17:43;;;;;;;;;;;;;;;;;;2114130;28;43951;-67
2021/10/07 04:18:44;;;;;;;;;;;;;;;;;;2113163;28;44605;-67
2021/10/07 04:19:48;;;;;;;;;;;;;;;;;;2113730;28;44603;-67
2021/10/07 04:20:50;;;;;;;;;;;;;;;;;;2122050;27;45925;-67
2021/10/07 04:21:51;;;;;;;;;;;;;;;;;;2122011;27;45855;-67
2021/10/07 04:22:53;;;;;;;;;;;;;;;;;;2113298;28;47502;-68
2021/10/07 04:23:54;;;;;;;;;;;;;;;;;;2113711;28;45748;-67
2021/10/07 04:24:56;;;;;;;;;;;;;;;;;;2114012;27;46996;-68
2021/10/07 04:25:57;;;;;;;;;;;;;;;;;;2113609;28;45814;-67
2021/10/07 04:26:59;;;;;;;;;;;;;;;;;;2113534;28;47207;-66
2021/10/07 04:28:02;;;;;;;;;;;;;;;;;;2113476;28;45992;-66
2021/10/07 04:29:03;;;;;;;;;;;;;;;;;;2114140;27;47171;-67
2021/10/07 04:30:06;;;;;;;;;;;;;;;;;;2122273;27;47076;-67
2021/10/07 04:31:07;;;;;;;;;;;;;;;;;;2121327;27;45194;-67
2021/10/07 04:32:09;;;;;;;;;;;;;;;;;;2113861;28;44406;-66
2021/10/07 04:33:11;;;;;;;;;;;;;;;;;;2113743;28;43833;-67
2021/10/07 04:34:13;;;;;;;;;;;;;;;;;;2122352;27;45163;-66
2021/10/07 04:35:14;;;;;;;;;;;;;;;;;;2122085;27;44039;-66
2021/10/07 04:36:15;;;;;;;;;;;;;;;;;;2114158;28;46454;-67
2021/10/07 04:37:17;;;;;;;;;;;;;;;;;;2114059;28;45190;-67
2021/10/07 04:38:18;;;;;;;;;;;;;;;;;;2113434;28;45364;-68
2021/10/07 04:39:20;;;;;;;;;;;;;;;;;;2113743;28;44800;-68
2021/10/07 04:40:21;;;;;;;;;;;;;;;;;;2122176;27;45155;-68
2021/10/07 04:41:22;;;;;;;;;;;;;;;;;;2122029;27;44115;-68
2021/10/07 04:42:24;;;;;;;;;;;;;;;;;;2122168;27;45252;-68
2021/10/07 04:43:25;;;;;;;;;;;;;;;;;;2121972;27;43906;-67
2021/10/07 04:44:27;;;;;;;;;;;;;;;;;;2122121;27;43290;-67
2021/10/07 04:45:28;;;;;;;;;;;;;;;;;;2121939;27;45150;-68
2021/10/07 04:46:30;;;;;;;;;;;;;;;;;;2122239;27;45609;-68
2021/10/07 04:47:32;;;;;;;;;;;;;;;;;;2112606;27;45617;-68
2021/10/07 04:48:34;;;;;;;;;;;;;;;;;;2121784;27;46461;-69
2021/10/07 04:49:35;;;;;;;;;;;;;;;;;;2113960;27;45277;-68
2021/10/07 04:50:36;;;;;;;;;;;;;;;;;;2122119;27;46831;-68
2021/10/07 04:51:38;;;;;;;;;;;;;;;;;;2121959;27;45151;-68
2021/10/07 04:52:39;;;;;;;;;;;;;;;;;;2114253;28;46242;-68
2021/10/07 04:53:41;;;;;;;;;;;;;;;;;;2114207;28;44598;-67
2021/10/07 04:54:42;;;;;;;;;;;;;;;;;;2113622;27;45286;-69
2021/10/07 04:55:44;;;;;;;;;;;;;;;;;;2122140;27;46503;-68
2021/10/07 04:56:45;;;;;;;;;;;;;;;;;;2122307;27;45396;-68
2021/10/07 04:57:46;;;;;;;;;;;;;;;;;;2112963;28;46730;-68
2021/10/07 04:58:48;;;;;;;;;;;;;;;;;;2113371;28;46576;-68
2021/10/07 04:59:52;;;;;;;;;;;;;;;;;;2113540;28;44244;-68
2021/10/07 05:00:54;;;;;;;;;;;;;;;;;;2113365;28;46781;-68
2021/10/07 05:01:55;;;;;;;;;;;;;;;;;;2113155;28;46933;-67
2021/10/07 05:02:57;;;;;;;;;;;;;;;;;;2113470;28;45363;-68
2021/10/07 05:03:59;;;;;;;;;;;;;;;;;;2113974;27;46732;-68
2021/10/07 05:05:01;;;;;;;;;;;;;;;;;;2115482;27;46370;-68
2021/10/07 05:06:02;;;;;;;;;;;;;;;;;;2123392;27;45729;-68
2021/10/07 05:07:04;;;;;;;;;;;;;;;;;;2123461;27;46469;-68
2021/10/07 05:08:06;;;;;;;;;;;;;;;;;;2114298;28;45438;-68
2021/10/07 05:09:07;;;;;;;;;;;;;;;;;;2114495;28;46500;-68
2021/10/07 05:10:09;;;;;;;;;;;;;;;;;;2115538;28;45288;-68
2021/10/07 05:11:11;;;;;;;;;;;;;;;;;;2114786;28;46647;-69
2021/10/07 05:12:12;;;;;;;;;;;;;;;;;;2114923;28;45432;-69
2021/10/07 05:13:14;;;;;;;;;;;;;;;;;;2123410;27;44381;-69
2021/10/07 05:14:15;;;;;;;;;;;;;;;;;;2123709;27;45990;-69
2021/10/07 05:15:17;;;;;;;;;;;;;;;;;;2115230;28;45433;-69
2021/10/07 05:16:18;;;;;;;;;;;;;;;;;;2114901;28;47110;-69
2021/10/07 05:17:20;;;;;;;;;;;;;;;;;;2122979;27;44061;-69
2021/10/07 05:18:21;;;;;;;;;;;;;;;;;;2114686;28;42676;-68
2021/10/07 05:19:23;;;;;;;;;;;;;;;;;;2114717;28;46089;-69
2021/10/07 05:20:24;;;;;;;;;;;;;;;;;;2114914;28;44760;-69
2021/10/07 05:21:25;;;;;;;;;;;;;;;;;;2114812;28;46228;-69
2021/10/07 05:22:27;;;;;;;;;;;;;;;;;;2115392;28;47001;-69
2021/10/07 05:23:29;;;;;;;;;;;;;;;;;;2123193;27;44521;-70
2021/10/07 05:24:30;;;;;;;;;;;;;;;;;;2123390;27;45845;-70
2021/10/07 05:25:32;;;;;;;;;;;;;;;;;;2123267;27;46040;-69
2021/10/07 05:26:33;;;;;;;;;;;;;;;;;;2123221;27;45921;-70
2021/10/07 05:27:34;;;;;;;;;;;;;;;;;;2122779;27;46919;-71
2021/10/07 05:28:36;;;;;;;;;;;;;;;;;;2122854;27;46042;-70
2021/10/07 05:29:37;;;;;;;;;;;;;;;;;;2114728;28;46879;-69
2021/10/07 05:30:39;;;;;;;;;;;;;;;;;;2114491;28;47110;-70
2021/10/07 05:31:40;;;;;;;;;;;;;;;;;;2115284;27;44592;-69
2021/10/07 05:32:42;;;;;;;;;;;;;;;;;;2114931;28;46116;-69
2021/10/07 05:33:43;;;;;;;;;;;;;;;;;;2123340;27;44500;-69
2021/10/07 05:34:45;;;;;;;;;;;;;;;;;;2123098;27;46415;-69
2021/10/07 05:35:46;;;;;;;;;;;;;;;;;;2122820;27;46305;-71
2021/10/07 05:36:48;;;;;;;;;;;;;;;;;;2123251;27;47016;-71
2021/10/07 05:37:49;;;;;;;;;;;;;;;;;;2122868;27;46899;-72
2021/10/07 05:38:51;;;;;;;;;;;;;;;;;;2114609;28;43882;-71
2021/10/07 05:39:52;;;;;;;;;;;;;;;;;;2114653;28;45290;-71
2021/10/07 05:40:53;;;;;;;;;;;;;;;;;;2114742;28;46482;-70
2021/10/07 05:41:55;;;;;;;;;;;;;;;;;;2122986;27;46325;-71
2021/10/07 05:42:56;;;;;;;;;;;;;;;;;;2123312;27;46476;-71
2021/10/07 05:43:57;;;;;;;;;;;;;;;;;;2122990;27;45234;-70
2021/10/07 05:44:59;;;;;;;;;;;;;;;;;;2114691;28;46246;-71
2021/10/07 05:46:00;;;;;;;;;;;;;;;;;;2114414;28;45173;-70
2021/10/07 05:47:02;;;;;;;;;;;;;;;;;;2114841;28;45175;-70
2021/10/07 05:48:04;;;;;;;;;;;;;;;;;;2113982;28;45168;-71
2021/10/07 05:49:05;;;;;;;;;;;;;;;;;;2122994;27;41270;-71
2021/10/07 05:50:08;;;;;;;;;;;;;;;;;;2114475;28;44742;-70
2021/10/07 05:51:09;;;;;;;;;;;;;;;;;;2115132;28;43748;-70
2021/10/07 05:52:11;;;;;;;;;;;;;;;;;;2122767;27;45275;-71
2021/10/07 05:53:12;;;;;;;;;;;;;;;;;;2114857;28;46580;-72
2021/10/07 05:54:14;;;;;;;;;;;;;;;;;;2114395;27;46950;-70
2021/10/07 05:55:15;;;;;;;;;;;;;;;;;;2123008;27;46390;-70
2021/10/07 05:56:17;;;;;;;;;;;;;;;;;;2114556;28;45534;-71
2021/10/07 05:57:18;;;;;;;;;;;;;;;;;;2123121;27;46626;-73
2021/10/07 05:58:20;;;;;;;;;;;;;;;;;;2122204;27;42448;-71
2021/10/07 05:59:21;;;;;;;;;;;;;;;;;;2123002;27;43916;-70
2021/10/07 06:00:23;;;;;;;;;;;;;;;;;;2122910;27;45279;-71
2021/10/07 06:01:24;;;;;;;;;;;;;;;;;;2115137;28;45336;-71
2021/10/07 06:02:26;;;;;;;;;;;;;;;;;;2106222;28;45916;-71
2021/10/07 06:03:27;;;;;;;;;;;;;;;;;;2106539;28;44172;-72
2021/10/07 06:04:29;;;;;;;;;;;;;;;;;;2114390;27;42808;-72
2021/10/07 06:05:31;;;;;;;;;;;;;;;;;;2123116;27;46801;-71
2021/10/07 06:06:32;;;;;;;;;;;;;;;;;;2114529;28;42972;-71
2021/10/07 06:07:33;;;;;;;;;;;;;;;;;;2105810;28;46950;-71
2021/10/07 06:08:36;;;;;;;;;;;;;;;;;;2114157;27;46910;-72
2021/10/07 06:09:37;;;;;;;;;;;;;;;;;;2123072;27;46429;-71
2021/10/07 06:10:38;;;;;;;;;;;;;;;;;;2122922;27;45289;-73
2021/10/07 06:11:40;;;;;;;;;;;;;;;;;;2114258;28;45314;-71
2021/10/07 06:12:42;;;;;;;;;;;;;;;;;;2115242;28;45459;-71
2021/10/07 06:13:44;;;;;;;;;;;;;;;;;;2114403;28;46619;-72
2021/10/07 06:14:45;;;;;;;;;;;;;;;;;;2114409;28;46597;-72
2021/10/07 06:15:48;;;;;;;;;;;;;;;;;;2113620;28;45559;-74
2021/10/07 06:16:53;;;;;;;;;;;;;;;;;;2114467;28;45438;-72
2021/10/07 06:17:55;;;;;;;;;;;;;;;;;;2113768;28;45704;-72
2021/10/07 06:18:57;;;;;;;;;;;;;;;;;;2114103;28;46672;-73
2021/10/07 06:20:05;;;;;;;;;;;;;;;;;;2114375;28;46478;-71
2021/10/07 06:21:07;;;;;;;;;;;;;;;;;;2111426;27;45402;-70
2021/10/07 06:22:22;;;;;;;;;;;;;;;;;;2120511;27;47357;-71
2021/10/07 06:23:24;;;;;;;;;;;;;;;;;;2114879;28;46997;-70
2021/10/07 06:24:25;;;;;;;;;;;;;;;;;;2122953;27;47357;-69
2021/10/07 06:25:27;;;;;;;;;;;;;;;;;;2122849;27;45978;-69
2021/10/07 06:26:29;;;;;;;;;;;;;;;;;;2122520;27;48213;-69
2021/10/07 06:27:30;;;;;;;;;;;;;;;;;;2114159;28;45827;-69
2021/10/07 06:28:31;;;;;;;;;;;;;;;;;;2122412;27;44473;-69
2021/10/07 06:29:33;;;;;;;;;;;;;;;;;;2122014;27;46016;-69
2021/10/07 06:30:35;;;;;;;;;;;;;;;;;;2122366;27;45861;-69
2021/10/07 06:31:36;;;;;;;;;;;;;;;;;;2114390;28;46201;-69
2021/10/07 06:32:38;;;;;;;;;;;;;;;;;;2114078;28;44200;-69
2021/10/07 06:33:39;;;;;;;;;;;;;;;;;;2114296;28;46121;-69
2021/10/07 06:34:41;;;;;;;;;;;;;;;;;;2114292;28;47008;-69
2021/10/07 06:35:42;;;;;;;;;;;;;;;;;;2114094;28;46845;-69
2021/10/07 06:36:44;;;;;;;;;;;;;;;;;;2105762;28;46387;-69
2021/10/07 06:37:45;;;;;;;;;;;;;;;;;;2113704;28;45891;-69
2021/10/07 06:38:47;;;;;;;;;;;;;;;;;;2105516;28;47133;-69
2021/10/07 06:39:48;;;;;;;;;;;;;;;;;;2097438;28;45852;-69
2021/10/07 06:40:50;;;;;;;;;;;;;;;;;;2105767;28;45829;-69
2021/10/07 06:41:53;;;;;;;;;;;;;;;;;;2113765;28;47234;-69
2021/10/07 06:42:55;;;;;;;;;;;;;;;;;;2114020;28;45977;-69
2021/10/07 06:43:56;;;;;;;;;;;;;;;;;;2105394;28;45820;-69
2021/10/07 06:44:59;;;;;;;;;;;;;;;;;;2097135;28;45284;-69
2021/10/07 06:46:01;;;;;;;;;;;;;;;;;;2105926;28;46357;-69
2021/10/07 06:47:02;;;;;;;;;;;;;;;;;;2105938;28;44556;-70
2021/10/07 06:48:04;;;;;;;;;;;;;;;;;;2107425;27;45318;-69
2021/10/07 06:49:05;;;;;;;;;;;;;;;;;;2122374;27;46509;-69
2021/10/07 06:50:08;;;;;;;;;;;;;;;;;;2114757;28;45166;-69
2021/10/07 06:51:10;;;;;;;;;;;;;;;;;;2113296;28;45398;-71
2021/10/07 06:52:11;;;;;;;;;;;;;;;;;;2113419;28;45205;-69
2021/10/07 06:53:12;;;;;;;;;;;;;;;;;;2109803;28;45082;-69
2021/10/07 06:54:14;;;;;;;;;;;;;;;;;;2106615;28;43714;-69
2021/10/07 06:55:15;;;;;;;;;;;;;;;;;;2105652;28;45274;-69
2021/10/07 06:56:17;;;;;;;;;;;;;;;;;;2097253;28;46463;-68
2021/10/07 06:57:18;;;;;;;;;;;;;;;;;;2105830;28;46193;-69
2021/10/07 06:58:20;;;;;;;;;;;;;;;;;;2105117;28;46410;-69
2021/10/07 06:59:21;;;;;;;;;;;;;;;;;;2105357;28;45334;-68
2021/10/07 07:00:22;;;;;;;;;;;;;;;;;;2105196;27;46623;-70
2021/10/07 07:01:25;;;;;;;;;;;;;;;;;;2117790;27;45616;-70
2021/10/07 07:02:27;;;;;;;;;;;;;;;;;;2113400;28;46755;-70
2021/10/07 07:03:28;;;;;;;;;;;;;;;;;;2116808;27;45262;-70
2021/10/07 07:04:30;;;;;;;;;;;;;;;;;;2122341;27;45606;-70
2021/10/07 07:05:31;;;;;;;;;;;;;;;;;;2115106;28;42295;-71
2021/10/07 07:06:33;;;;;;;;;;;;;;;;;;2113832;27;44299;-70
2021/10/07 07:07:35;;;;;;;;;;;;;;;;;;2114333;27;45341;-70